Georgetown, ME

5:45 PM EST on December 28, 2014 (GMT -0500)
Indian Point, Georgetown ME | Change Station
CLOSE
Current Station
Personal Weather Station
Location: Georgetown, ME
Elevation: 36 ft
Nearby Weather Stations

Elev 36 ft 43.76 °N, 69.75 °W | Updated 1 minute ago

Partly Cloudy
Partly Cloudy
39.7 °F
Feels Like 40 °F
N
0.0
Wind Variable Wind from East
Gusts 1.0 mph

Today
High -- | Low -- °F
--% Chance of Precip.
Yesterday
High -- | Low -- °F
Precip. -- in
7:12 AM 4:08 PM
First Quarter, 52% visible
Pressure 29.78 in
Visibility 10.0 miles
Clouds Clear
Windchill 40 °F
Dew Point 38 °F
Humidity 94%
Rainfall 0.45 in
Snow Depth Not available.
UV 0.0 out of 12
Pollen .10 out of 12
Air Quality Not available.
Flu Activity Not available.
METAR KIWI 282153Z AUTO VRB04KT 10SM CLR 06/01 A2978 RMK AO2 SLP085 T00560006

More Conditions Fewer Conditions

Pressure 29.78 in
Visibility 10.0 miles
Clouds Clear
Windchill 40 °F
Dew Point 38 °F
Humidity 94%
Rainfall 0.45 in
Snow Depth Not available.
UV 0.0 out of 12
Pollen .10 out of 12
Air Quality Not available.
Flu Activity Not available.
METAR KIWI 282153Z AUTO VRB04KT 10SM CLR 06/01 A2978 RMK AO2 SLP085 T00560006

More Conditions Fewer Conditions

10-Day Weather Forecast

Almanac

Astronomy

Dec. 28, 2014 Rise Set
Actual Time
Civil Twilight
Nautical Twilight
Astronomical Twilight
Moon
Length of Visible Light
Length of Day
Tomorrow will be .
, % of the Moon is Illuminated

Today's Extremes

State Highs State Lows

Community

WunderPhotos

Upload Photos

1,781,452 photos uploaded!

WunderBlogs® & News

Nearby

Air Quality

  Air Quality AQ Index Pollutant
Not available.

Snow Depth

Station Depth Elevation

Earthquake Activity

City Distance Mag. Time & Date
Minimum magnitude displayed is 2.5.

Coastal Water Temperatures

Place Temperature

Nearby Weather Stations